createdAt,value
2023-04-03T00:00:10.984Z,92.8762
2023-04-03T00:01:12.689Z,92.9008
2023-04-03T00:02:14.538Z,92.8057
2023-04-03T00:03:16.354Z,92.4533
2023-04-03T00:04:18.089Z,92.2214
2023-04-03T00:05:19.955Z,92.0324
2023-04-03T00:06:21.620Z,92.0253
2023-04-03T00:07:23.313Z,92.1199
2023-04-03T00:08:25.028Z,91.9782
2023-04-03T00:09:26.699Z,91.9860
2023-04-03T00:10:28.525Z,92.0635
2023-04-03T00:11:30.181Z,92.1423
2023-04-03T00:12:31.871Z,91.9415
2023-04-03T00:13:33.524Z,92.1312
2023-04-03T00:14:35.249Z,92.2023
2023-04-03T00:15:36.988Z,92.4511
2023-04-03T00:16:38.705Z,91.9030
2023-04-03T00:17:40.430Z,91.8186
2023-04-03T00:18:42.099Z,91.7573
2023-04-03T00:19:43.808Z,91.7463
2023-04-03T00:20:45.531Z,92.0629
2023-04-03T00:21:47.256Z,92.4211
2023-04-03T00:22:49.150Z,92.1122
2023-04-03T00:23:50.838Z,92.0852
2023-04-03T00:24:52.627Z,92.2539
2023-04-03T00:25:54.398Z,91.8951
2023-04-03T00:26:56.166Z,91.9142
2023-04-03T00:27:57.900Z,91.6310
2023-04-03T00:28:59.637Z,91.1730
2023-04-03T00:30:01.323Z,91.2996
2023-04-03T00:31:03.109Z,91.0625
2023-04-03T00:32:04.802Z,90.6512
2023-04-03T00:33:06.548Z,90.4281
2023-04-03T00:34:08.348Z,90.7704
2023-04-03T00:35:10.036Z,91.0054
2023-04-03T00:36:11.849Z,91.4938
2023-04-03T00:37:13.528Z,91.3053
2023-04-03T00:38:15.272Z,90.4612
2023-04-03T00:39:16.994Z,90.8301
2023-04-03T00:40:18.702Z,90.5163
2023-04-03T00:41:20.481Z,90.9193
2023-04-03T00:42:22.190Z,90.8773
2023-04-03T00:43:23.860Z,90.6334
2023-04-03T00:44:25.577Z,89.4757
2023-04-03T00:45:27.403Z,89.8227
2023-04-03T00:46:29.161Z,90.0222
2023-04-03T00:47:30.909Z,90.3057
2023-04-03T00:48:32.633Z,90.3855
2023-04-03T00:49:34.343Z,90.9894
2023-04-03T00:50:36.468Z,90.8100
2023-04-03T00:51:38.327Z,90.9292
2023-04-03T00:52:39.563Z,90.8673
2023-04-03T00:53:42.935Z,90.6493
2023-04-03T00:54:44.622Z,90.5617
2023-04-03T00:55:46.283Z,90.6154
2023-04-03T00:56:47.996Z,90.9798
2023-04-03T00:57:49.719Z,90.7375
2023-04-03T00:58:51.488Z,90.0113
2023-04-03T00:59:53.145Z,89.6473
2023-04-03T01:00:54.931Z,89.7708
2023-04-03T01:01:56.675Z,90.0959
2023-04-03T01:02:58.546Z,89.7608
2023-04-03T01:04:00.237Z,89.7132
2023-04-03T01:05:01.976Z,90.0517
2023-04-03T01:06:03.724Z,89.5183
2023-04-03T01:07:05.467Z,89.8725
2023-04-03T01:08:07.147Z,89.6544
2023-04-03T01:09:08.914Z,89.5299
2023-04-03T01:10:10.608Z,89.7258
2023-04-03T01:11:12.343Z,89.3490
2023-04-03T01:12:14.121Z,89.2423
2023-04-03T01:13:15.827Z,89.4062
2023-04-03T01:14:17.520Z,89.5247
2023-04-03T01:15:19.279Z,90.2484
2023-04-03T01:16:21.127Z,89.7751
2023-04-03T01:17:22.856Z,89.8814
2023-04-03T01:18:24.605Z,90.1472
2023-04-03T01:19:26.292Z,90.1493
2023-04-03T01:20:28.103Z,90.3042
2023-04-03T01:21:29.827Z,90.1573
2023-04-03T01:22:31.543Z,89.7482
2023-04-03T01:23:33.321Z,89.6334
2023-04-03T01:24:35.046Z,89.9898
2023-04-03T01:25:36.763Z,89.8712
2023-04-03T01:26:38.721Z,89.9032
2023-04-03T01:27:40.356Z,90.2934
2023-04-03T01:28:42.125Z,90.2038
2023-04-03T01:29:43.888Z,89.9747
2023-04-03T01:30:45.589Z,89.7959
2023-04-03T01:31:47.363Z,89.7054
2023-04-03T01:32:49.145Z,89.5554
2023-04-03T01:33:50.828Z,89.1253
2023-04-03T01:34:52.518Z,89.2251
2023-04-03T01:35:54.305Z,89.4143
2023-04-03T01:36:56.090Z,89.4550
2023-04-03T01:37:57.809Z,88.7108
2023-04-03T01:38:59.497Z,88.7532
2023-04-03T01:40:01.220Z,89.2470
2023-04-03T01:41:02.908Z,89.5899
2023-04-03T01:42:04.661Z,88.8285
2023-04-03T01:43:06.431Z,88.3153
2023-04-03T01:44:08.150Z,88.8084
2023-04-03T01:45:09.926Z,88.7422
2023-04-03T01:46:11.903Z,89.0600
2023-04-03T01:47:14.001Z,88.9990
2023-04-03T01:48:15.747Z,89.0963
2023-04-03T01:49:17.509Z,88.3202
2023-04-03T01:50:19.219Z,88.5479
2023-04-03T01:51:20.992Z,88.9310
2023-04-03T01:52:22.763Z,89.0688
2023-04-03T01:53:24.564Z,89.0098
2023-04-03T01:54:26.296Z,89.2533
2023-04-03T01:55:28.044Z,89.2512
2023-04-03T01:56:29.786Z,89.6169
2023-04-03T01:57:31.693Z,89.3191
2023-04-03T01:58:33.524Z,88.6275
2023-04-03T01:59:35.322Z,89.0773
2023-04-03T02:00:37.457Z,89.0089
2023-04-03T02:01:37.371Z,89.1021
2023-04-03T02:02:39.580Z,89.1302
2023-04-03T02:03:41.379Z,89.2791
2023-04-03T02:04:43.197Z,89.2949
2023-04-03T02:05:44.973Z,89.0958
2023-04-03T02:06:46.770Z,89.3730
2023-04-03T02:07:48.627Z,89.0979
2023-04-03T02:08:50.399Z,89.1149
2023-04-03T02:09:52.266Z,89.3997
2023-04-03T02:10:54.066Z,89.6433
2023-04-03T02:11:55.902Z,89.0957
2023-04-03T02:12:57.661Z,89.1427
2023-04-03T02:13:59.498Z,89.1694
2023-04-03T02:15:01.238Z,88.9267
2023-04-03T02:16:03.036Z,89.1352
2023-04-03T02:17:04.839Z,89.0390
2023-04-03T02:18:07.618Z,89.2009
2023-04-03T02:19:07.259Z,88.8135
2023-04-03T02:20:09.029Z,88.7064
2023-04-03T02:21:10.821Z,89.1270
2023-04-03T02:22:12.671Z,88.7273
2023-04-03T02:23:14.463Z,88.5022
2023-04-03T02:24:16.218Z,88.8566
2023-04-03T02:25:17.998Z,89.2133
2023-04-03T02:26:19.737Z,88.9162
2023-04-03T02:27:21.525Z,88.7887
2023-04-03T02:28:23.272Z,88.8522
2023-04-03T02:29:25.127Z,89.0852
2023-04-03T02:30:26.899Z,89.1663
2023-04-03T02:31:28.728Z,89.1981
2023-04-03T02:32:30.546Z,89.3806
2023-04-03T02:33:32.286Z,89.1768
2023-04-03T02:34:34.042Z,89.0435
2023-04-03T02:35:35.836Z,88.7482
2023-04-03T02:36:37.570Z,88.6959
2023-04-03T02:37:39.343Z,88.8696
2023-04-03T02:38:41.117Z,88.8192
2023-04-03T02:39:42.938Z,88.9343
2023-04-03T02:40:44.677Z,88.7427
2023-04-03T02:41:46.529Z,88.5704
2023-04-03T02:42:48.289Z,88.1236
2023-04-03T02:43:50.032Z,87.9535
2023-04-03T02:44:51.800Z,88.1589
2023-04-03T02:45:53.235Z,88.3048
2023-04-03T02:46:53.587Z,88.2677
2023-04-03T02:47:55.442Z,88.3814
2023-04-03T02:48:57.270Z,88.3118
2023-04-03T02:49:59.132Z,88.2338
2023-04-03T02:51:00.905Z,88.1954
2023-04-03T02:52:02.768Z,88.2942
2023-04-03T02:53:04.597Z,88.5020
2023-04-03T02:54:06.290Z,88.2949
2023-04-03T02:55:08.053Z,88.6185
2023-04-03T02:56:09.801Z,88.5677
2023-04-03T02:57:11.658Z,88.3019
2023-04-03T02:58:13.721Z,88.5530
2023-04-03T02:59:15.514Z,88.7941
2023-04-03T03:00:17.283Z,89.2160
2023-04-03T03:01:19.026Z,89.0362
2023-04-03T03:02:20.834Z,88.8815
2023-04-03T03:03:22.617Z,89.0602
2023-04-03T03:04:24.420Z,88.8268
2023-04-03T03:05:26.161Z,88.8487
2023-04-03T03:06:28.026Z,88.7872
2023-04-03T03:07:29.841Z,88.7791
2023-04-03T03:08:31.670Z,88.8055
2023-04-03T03:09:33.429Z,88.8168
2023-04-03T03:10:35.399Z,89.0833
2023-04-03T03:11:37.578Z,88.9934
2023-04-03T03:12:39.320Z,89.0422
2023-04-03T03:13:41.094Z,88.8190
2023-04-03T03:14:42.849Z,88.8675
2023-04-03T03:15:44.641Z,89.0295
2023-04-03T03:16:46.362Z,88.9870
2023-04-03T03:17:48.168Z,89.0653
2023-04-03T03:18:49.965Z,89.1167
2023-04-03T03:19:51.724Z,89.0365
2023-04-03T03:20:53.461Z,89.0353
2023-04-03T03:21:55.238Z,88.6787
2023-04-03T03:22:56.999Z,88.5134
2023-04-03T03:23:58.796Z,88.4114
2023-04-03T03:25:00.540Z,88.2686
2023-04-03T03:26:02.349Z,88.0286
2023-04-03T03:27:04.163Z,87.7390
2023-04-03T03:28:05.890Z,87.5383
2023-04-03T03:29:07.725Z,87.6046
2023-04-03T03:30:09.466Z,87.7083
2023-04-03T03:31:11.381Z,87.9650
2023-04-03T03:32:13.152Z,87.6237
2023-04-03T03:33:14.926Z,87.3130
2023-04-03T03:34:16.658Z,87.2645
2023-04-03T03:35:18.416Z,87.3329
2023-04-03T03:36:20.224Z,87.0456
2023-04-03T03:37:22.005Z,87.0412
2023-04-03T03:38:23.865Z,86.7726
2023-04-03T03:39:25.653Z,86.7199
2023-04-03T03:40:27.478Z,86.4063
2023-04-03T03:41:29.249Z,86.2914
2023-04-03T03:42:31.000Z,86.2207
2023-04-03T03:43:32.844Z,85.7807
2023-04-03T03:44:34.546Z,86.0791
2023-04-03T03:45:36.575Z,86.0792
2023-04-03T03:46:38.648Z,85.6992
2023-04-03T03:47:40.440Z,85.6541
2023-04-03T03:48:42.329Z,86.0867
2023-04-03T03:49:44.147Z,85.6123
2023-04-03T03:50:45.866Z,85.2622
2023-04-03T03:51:47.651Z,85.9931
2023-04-03T03:52:49.429Z,85.6095
2023-04-03T03:53:51.273Z,85.6021
2023-04-03T03:54:53.101Z,85.3645
2023-04-03T03:55:54.847Z,85.4129
2023-04-03T03:56:56.627Z,85.4253
2023-04-03T03:57:58.429Z,85.0651
2023-04-03T03:59:00.241Z,84.8985
2023-04-03T04:00:02.035Z,84.7971
2023-04-03T04:01:03.850Z,84.6603
2023-04-03T04:02:05.755Z,84.5001
2023-04-03T04:03:07.720Z,84.3145
2023-04-03T04:04:09.615Z,84.1896
2023-04-03T04:05:11.316Z,84.2709
2023-04-03T04:06:13.170Z,84.2098
2023-04-03T04:07:14.942Z,84.4760
2023-04-03T04:08:16.695Z,84.4155
2023-04-03T04:09:18.479Z,84.4064
2023-04-03T04:10:20.250Z,84.0425
2023-04-03T04:11:22.008Z,83.5975
2023-04-03T04:12:23.893Z,83.9526
2023-04-03T04:13:25.645Z,83.4910
2023-04-03T04:14:27.491Z,83.4729
2023-04-03T04:15:29.294Z,83.3908
2023-04-03T04:16:31.136Z,83.0249
2023-04-03T04:17:33.087Z,82.4317
2023-04-03T04:18:34.880Z,82.5415
2023-04-03T04:19:36.716Z,82.4280
2023-04-03T04:20:38.517Z,82.8139
2023-04-03T04:21:40.435Z,82.4301
2023-04-03T04:22:42.213Z,82.4024
2023-04-03T04:23:44.094Z,82.4931
2023-04-03T04:24:45.877Z,82.3979
2023-04-03T04:25:47.658Z,82.1599
2023-04-03T04:26:49.506Z,81.8615
2023-04-03T04:27:51.272Z,81.8491
2023-04-03T04:28:53.054Z,82.1341
2023-04-03T04:29:54.901Z,81.9843
2023-04-03T04:30:56.738Z,82.0083
2023-04-03T04:31:58.473Z,81.7539
2023-04-03T04:33:00.316Z,81.9934
2023-04-03T04:34:02.124Z,82.4308
2023-04-03T04:35:03.943Z,82.2066
2023-04-03T04:36:05.783Z,82.2262
2023-04-03T04:37:07.630Z,82.1335
2023-04-03T04:38:09.664Z,82.0092
2023-04-03T04:39:11.444Z,82.6864
2023-04-03T04:40:13.313Z,82.2149
2023-04-03T04:41:15.194Z,82.0138
2023-04-03T04:42:17.939Z,82.0382
2023-04-03T04:43:17.587Z,81.8989
2023-04-03T04:44:19.391Z,81.6099
2023-04-03T04:45:21.223Z,81.7153
2023-04-03T04:46:23.099Z,81.0957
2023-04-03T04:47:24.955Z,81.2547
2023-04-03T04:48:26.712Z,81.3925
2023-04-03T04:49:28.549Z,81.2351
2023-04-03T04:50:30.414Z,80.8525
2023-04-03T04:51:40.996Z,80.9993
2023-04-03T04:52:32.581Z,80.6095
2023-04-03T04:53:34.655Z,79.9839
2023-04-03T04:54:36.473Z,80.1571
2023-04-03T04:55:38.596Z,80.2139
2023-04-03T04:56:38.292Z,80.3194
2023-04-03T04:57:40.168Z,80.3626
2023-04-03T04:58:42.307Z,80.1607
2023-04-03T04:59:44.106Z,79.1575
2023-04-03T05:00:46.038Z,79.5913
2023-04-03T05:01:47.826Z,79.9670
2023-04-03T05:02:49.737Z,80.3534
2023-04-03T05:03:51.610Z,79.2212
2023-04-03T05:04:53.442Z,79.2205
2023-04-03T05:05:55.298Z,79.2556
2023-04-03T05:06:57.002Z,79.3071
2023-04-03T05:07:58.812Z,78.9114
2023-04-03T05:09:00.581Z,78.4532
2023-04-03T05:10:02.395Z,77.5338
2023-04-03T05:11:04.149Z,78.1157
2023-04-03T05:12:05.939Z,78.5209
2023-04-03T05:13:07.756Z,77.7669
2023-04-03T05:14:09.552Z,77.0427
2023-04-03T05:15:11.366Z,77.3847
2023-04-03T05:16:13.136Z,77.2144
2023-04-03T05:17:14.930Z,77.3872
2023-04-03T05:18:16.779Z,77.4944
2023-04-03T05:19:18.562Z,77.1641
2023-04-03T05:20:20.389Z,77.2350
2023-04-03T05:21:22.200Z,77.7946
2023-04-03T05:22:23.987Z,76.8144
2023-04-03T05:23:25.752Z,76.7463
2023-04-03T05:24:27.551Z,76.6454
2023-04-03T05:25:29.323Z,76.0659
2023-04-03T05:26:31.122Z,75.6763
2023-04-03T05:27:32.930Z,75.8620
2023-04-03T05:28:34.691Z,75.9203
2023-04-03T05:29:36.437Z,75.8348
2023-04-03T05:30:38.347Z,75.2254
2023-04-03T05:31:40.211Z,75.3257
2023-04-03T05:32:42.028Z,75.7286
2023-04-03T05:33:43.810Z,75.8698
2023-04-03T05:34:45.621Z,75.0124
2023-04-03T05:35:47.480Z,75.1108
2023-04-03T05:36:49.414Z,74.7669
2023-04-03T05:37:51.413Z,74.6620
2023-04-03T05:38:53.249Z,75.5940
2023-04-03T05:39:55.277Z,75.9510
2023-04-03T05:40:57.054Z,75.3332
2023-04-03T05:41:58.845Z,75.7527
2023-04-03T05:43:00.694Z,75.2087
2023-04-03T05:44:02.436Z,74.8943
2023-04-03T05:45:04.256Z,74.4829
2023-04-03T05:46:06.163Z,74.7380
2023-04-03T05:47:07.945Z,74.9451
2023-04-03T05:48:09.751Z,74.7044
2023-04-03T05:49:11.514Z,74.8873
2023-04-03T05:50:13.310Z,74.2063
2023-04-03T05:51:15.142Z,73.9998
2023-04-03T05:52:16.908Z,74.0143
2023-04-03T05:53:18.735Z,73.7829
2023-04-03T05:54:20.473Z,74.0283
2023-04-03T05:55:22.294Z,73.8138
2023-04-03T05:56:24.117Z,73.2147
2023-04-03T05:57:25.903Z,72.8029
2023-04-03T05:58:27.714Z,72.1473
2023-04-03T05:59:29.572Z,72.5380
2023-04-03T06:00:31.353Z,73.2399
2023-04-03T06:01:33.145Z,72.7109
2023-04-03T06:02:34.943Z,72.8806
2023-04-03T06:03:38.798Z,72.9321
2023-04-03T06:04:37.208Z,72.8123
2023-04-03T06:05:39.377Z,72.4128
2023-04-03T06:06:41.377Z,72.3876
2023-04-03T06:07:43.218Z,72.1110
2023-04-03T06:08:44.977Z,71.5729
2023-04-03T06:09:46.808Z,70.9925
2023-04-03T06:10:48.498Z,70.3674
2023-04-03T06:11:50.419Z,70.6358
2023-04-03T06:12:52.221Z,70.2957
2023-04-03T06:13:54.020Z,70.4746
2023-04-03T06:14:55.783Z,70.3277
2023-04-03T06:15:57.584Z,70.4255
2023-04-03T06:16:59.393Z,70.6210
2023-04-03T06:18:01.194Z,70.6440
2023-04-03T06:19:02.983Z,70.3921
2023-04-03T06:20:04.742Z,70.2867
2023-04-03T06:21:06.570Z,70.1823
2023-04-03T06:22:08.393Z,70.2200
2023-04-03T06:23:10.148Z,70.0358
2023-04-03T06:24:11.912Z,69.9911
2023-04-03T06:25:13.687Z,70.1424
2023-04-03T06:26:15.473Z,70.2944
2023-04-03T06:27:17.271Z,70.1264
2023-04-03T06:28:19.082Z,70.0974
2023-04-03T06:29:20.946Z,70.0509
2023-04-03T06:30:22.799Z,69.7842
2023-04-03T06:31:24.728Z,69.8123
2023-04-03T06:32:26.600Z,69.6990
2023-04-03T06:33:28.458Z,69.7618
2023-04-03T06:34:30.330Z,69.1497
2023-04-03T06:35:32.204Z,69.2344
2023-04-03T06:36:33.984Z,68.5315
2023-04-03T06:37:35.838Z,68.7495
2023-04-03T06:38:37.652Z,68.7821
2023-04-03T06:39:39.472Z,68.8605
2023-04-03T06:40:41.337Z,68.5919
2023-04-03T06:41:43.191Z,68.8585
2023-04-03T06:42:45.013Z,68.6767
2023-04-03T06:43:46.860Z,68.7163
2023-04-03T06:44:48.704Z,68.8935
2023-04-03T06:45:50.508Z,68.9719
2023-04-03T06:46:52.407Z,68.6400
2023-04-03T06:47:54.249Z,68.5382
2023-04-03T06:48:56.067Z,68.5243
2023-04-03T06:49:57.881Z,68.3028
2023-04-03T06:50:59.740Z,68.4360
2023-04-03T06:52:02.665Z,68.7210
2023-04-03T06:53:02.341Z,68.1532
2023-04-03T06:54:04.191Z,67.7002
2023-04-03T06:55:06.188Z,67.6060
2023-04-03T06:56:07.990Z,67.2164
2023-04-03T06:57:09.796Z,67.3057
2023-04-03T06:58:11.632Z,67.6197
2023-04-03T06:59:13.460Z,67.4012
2023-04-03T07:00:15.321Z,67.1259
2023-04-03T07:01:17.216Z,66.9774
2023-04-03T07:02:19.036Z,67.3441
2023-04-03T07:03:21.032Z,67.4936
2023-04-03T07:04:22.872Z,67.2243
2023-04-03T07:05:24.685Z,67.2004
2023-04-03T07:06:26.494Z,67.4619
2023-04-03T07:07:28.347Z,67.3879
2023-04-03T07:08:30.146Z,67.3921
2023-04-03T07:09:31.986Z,67.3015
2023-04-03T07:10:33.820Z,67.4741
2023-04-03T07:11:35.621Z,67.3576
2023-04-03T07:12:37.449Z,67.3869
2023-04-03T07:13:39.251Z,67.1852
2023-04-03T07:14:41.056Z,67.1186
2023-04-03T07:15:42.888Z,67.4908
2023-04-03T07:16:44.709Z,67.4424
2023-04-03T07:17:46.554Z,67.2356
2023-04-03T07:18:48.387Z,66.8305
2023-04-03T07:19:50.210Z,66.3872
2023-04-03T07:20:52.044Z,66.2953
2023-04-03T07:21:53.883Z,66.6441
2023-04-03T07:22:55.710Z,66.8223
2023-04-03T07:23:57.532Z,67.0098
2023-04-03T07:24:59.373Z,67.1810
2023-04-03T07:26:01.214Z,67.1465
2023-04-03T07:27:03.030Z,66.7475
2023-04-03T07:28:04.903Z,66.8353
2023-04-03T07:29:06.763Z,66.8852
2023-04-03T07:30:08.581Z,66.8600
2023-04-03T07:31:10.461Z,67.1671
2023-04-03T07:32:12.290Z,66.7719
2023-04-03T07:33:14.126Z,66.7471
2023-04-03T07:34:15.934Z,66.2933
2023-04-03T07:35:17.748Z,66.1848
2023-04-03T07:36:19.578Z,65.8477
2023-04-03T07:37:21.409Z,65.3833
2023-04-03T07:38:23.233Z,65.6052
2023-04-03T07:39:25.116Z,65.4520
2023-04-03T07:40:26.963Z,65.5106
2023-04-03T07:41:28.800Z,65.4477
2023-04-03T07:42:30.645Z,65.3537
2023-04-03T07:43:32.436Z,65.6292
2023-04-03T07:44:34.256Z,65.4340
2023-04-03T07:45:36.235Z,65.4372
2023-04-03T07:46:38.263Z,65.3244
2023-04-03T07:47:40.184Z,64.9991
2023-04-03T07:48:42.000Z,64.8954
2023-04-03T07:49:43.785Z,64.7610
2023-04-03T07:50:45.594Z,64.1575
2023-04-03T07:51:47.380Z,64.6063
2023-04-03T07:52:49.226Z,64.2595
2023-04-03T07:53:51.055Z,64.3015
2023-04-03T07:54:52.859Z,63.8384
2023-04-03T07:55:54.675Z,63.7196
2023-04-03T07:56:56.570Z,63.7209
2023-04-03T07:57:58.458Z,63.8036
2023-04-03T07:59:00.344Z,63.9481
2023-04-03T08:00:02.173Z,63.6199
2023-04-03T08:01:03.985Z,63.6624
2023-04-03T08:02:05.808Z,64.0430
2023-04-03T08:03:09.597Z,63.5169
2023-04-03T08:04:09.929Z,63.2155
2023-04-03T08:05:11.728Z,63.2861
2023-04-03T08:06:16.516Z,63.5584
2023-04-03T08:07:14.604Z,63.3827
2023-04-03T08:08:16.727Z,63.3777
2023-04-03T08:09:18.851Z,63.3486
2023-04-03T08:10:20.802Z,63.6650
2023-04-03T08:11:22.594Z,63.5369
2023-04-03T08:12:24.441Z,63.5945
2023-04-03T08:13:26.264Z,63.4397
2023-04-03T08:14:28.103Z,63.5497
2023-04-03T08:15:29.886Z,63.6821
2023-04-03T08:16:31.800Z,63.4565
2023-04-03T08:17:33.727Z,63.1565
2023-04-03T08:18:35.567Z,63.2573
2023-04-03T08:19:37.304Z,63.2461
2023-04-03T08:20:39.161Z,63.7921
2023-04-03T08:21:41.062Z,63.8011
2023-04-03T08:22:42.864Z,63.1670
2023-04-03T08:23:44.701Z,62.5688
2023-04-03T08:24:58.279Z,62.5631
2023-04-03T08:25:46.875Z,62.2590
2023-04-03T08:26:48.671Z,62.1936
2023-04-03T08:27:50.496Z,62.4961
2023-04-03T08:28:52.340Z,62.2119
2023-04-03T08:29:54.145Z,62.6195
2023-04-03T08:30:56.033Z,62.9356
2023-04-03T08:31:57.866Z,62.6333
2023-04-03T08:32:59.667Z,62.2516
2023-04-03T08:34:01.487Z,61.7514
2023-04-03T08:35:03.366Z,62.1275
2023-04-03T08:36:05.178Z,62.2271
2023-04-03T08:37:06.958Z,62.3808
2023-04-03T08:38:08.735Z,62.4857
2023-04-03T08:39:10.619Z,62.4234
2023-04-03T08:40:12.423Z,62.0773
2023-04-03T08:41:14.229Z,62.1612
2023-04-03T08:42:15.981Z,62.0456
2023-04-03T08:43:17.824Z,62.3428
2023-04-03T08:44:19.600Z,62.3348
2023-04-03T08:45:21.348Z,62.3273
2023-04-03T08:46:23.243Z,62.3971
2023-04-03T08:47:25.085Z,61.9848
2023-04-03T08:48:26.904Z,62.1523
2023-04-03T08:49:28.770Z,62.4967
2023-04-03T08:50:30.561Z,62.9178
2023-04-03T08:51:32.378Z,62.9808
2023-04-03T08:52:34.128Z,62.3993
2023-04-03T08:53:35.938Z,62.3296
2023-04-03T08:54:37.771Z,62.4829
2023-04-03T08:55:39.887Z,63.0351
2023-04-03T08:56:39.623Z,63.0214
2023-04-03T08:57:41.427Z,61.7806
2023-04-03T08:58:43.245Z,61.7523
2023-04-03T08:59:45.074Z,62.0175
2023-04-03T09:00:46.896Z,62.5532
2023-04-03T09:01:48.702Z,62.2906
2023-04-03T09:02:50.485Z,62.3774
2023-04-03T09:03:52.308Z,62.4770
2023-04-03T09:04:54.085Z,62.4765
2023-04-03T09:05:55.849Z,62.0687
2023-04-03T09:06:57.660Z,62.2405
2023-04-03T09:07:59.437Z,62.1361
2023-04-03T09:09:01.283Z,61.9208
2023-04-03T09:10:03.110Z,61.8750
2023-04-03T09:11:04.927Z,61.8112
2023-04-03T09:12:06.722Z,61.9966
2023-04-03T09:13:08.524Z,61.6332
2023-04-03T09:14:10.386Z,61.8112
2023-04-03T09:15:12.226Z,62.0895
2023-04-03T09:16:14.022Z,61.7097
2023-04-03T09:17:15.803Z,61.8938
2023-04-03T09:18:17.579Z,61.6725
2023-04-03T09:19:19.393Z,61.6498
2023-04-03T09:20:21.369Z,61.6349
2023-04-03T09:21:23.192Z,61.9456
2023-04-03T09:22:25.017Z,61.5988
2023-04-03T09:23:26.784Z,61.3466
2023-04-03T09:24:28.630Z,61.6733
2023-04-03T09:25:32.081Z,62.0471
2023-04-03T09:26:31.639Z,61.4794
2023-04-03T09:27:33.476Z,61.0003
2023-04-03T09:28:39.258Z,61.0247
2023-04-03T09:29:35.639Z,60.9081
2023-04-03T09:30:37.625Z,61.0778
2023-04-03T09:31:40.116Z,61.4669
2023-04-03T09:32:40.625Z,61.2171
2023-04-03T09:33:42.341Z,61.5523
2023-04-03T09:34:44.190Z,61.3239
2023-04-03T09:35:48.615Z,61.1606
2023-04-03T09:36:46.143Z,60.8759
2023-04-03T09:37:47.891Z,60.8804
2023-04-03T09:38:49.720Z,61.1369
2023-04-03T09:39:51.517Z,60.9679
2023-04-03T09:40:53.329Z,61.3500
2023-04-03T09:41:55.111Z,61.5269
2023-04-03T09:43:01.490Z,61.6173
2023-04-03T09:43:57.250Z,61.3988
2023-04-03T09:44:59.068Z,61.2697
2023-04-03T09:46:00.856Z,60.8918
2023-04-03T09:47:02.734Z,60.6539
2023-04-03T09:48:05.563Z,60.8129
2023-04-03T09:49:09.508Z,61.5070
2023-04-03T09:50:07.073Z,60.9926
2023-04-03T09:51:08.848Z,60.5872
2023-04-03T09:52:10.655Z,60.6155
2023-04-03T09:53:12.453Z,60.9227
2023-04-03T09:54:14.300Z,60.8816
2023-04-03T09:55:16.105Z,61.4390
2023-04-03T09:56:17.883Z,60.8466
2023-04-03T09:57:19.678Z,60.6925
2023-04-03T09:58:21.425Z,60.0956
2023-04-03T09:59:23.294Z,60.0295
2023-04-03T10:00:25.050Z,60.6095
2023-04-03T10:01:26.836Z,61.1903
2023-04-03T10:02:28.623Z,61.0465
2023-04-03T10:03:31.349Z,60.9786
2023-04-03T10:04:32.270Z,61.0425
2023-04-03T10:05:34.048Z,60.6328
2023-04-03T10:06:35.838Z,60.7857
2023-04-03T10:07:37.629Z,61.4340
2023-04-03T10:08:39.424Z,61.9392
2023-04-03T10:09:41.199Z,61.4273
2023-04-03T10:10:42.983Z,61.7692
2023-04-03T10:11:44.761Z,61.4742
2023-04-03T10:12:46.550Z,61.7421
2023-04-03T10:13:51.220Z,61.8224
2023-04-03T10:14:48.404Z,62.4727
2023-04-03T10:15:50.236Z,62.0268
2023-04-03T10:16:52.080Z,62.2341
2023-04-03T10:17:53.888Z,62.2654
2023-04-03T10:18:55.661Z,62.5938
2023-04-03T10:19:57.484Z,62.3482
2023-04-03T10:20:59.253Z,62.0154
2023-04-03T10:22:01.193Z,61.6182
2023-04-03T10:23:02.996Z,61.6943
2023-04-03T10:24:04.759Z,61.7299
2023-04-03T10:25:06.632Z,61.3004
2023-04-03T10:26:08.360Z,62.3890
2023-04-03T10:27:10.165Z,61.4383
2023-04-03T10:28:11.965Z,61.4151
2023-04-03T10:29:13.749Z,61.8378
2023-04-03T10:30:15.595Z,61.6085
2023-04-03T10:31:17.476Z,61.3988
2023-04-03T10:32:19.294Z,62.2670
2023-04-03T10:33:21.083Z,61.9311
2023-04-03T10:34:22.901Z,61.7142
2023-04-03T10:35:24.664Z,61.6928
2023-04-03T10:36:26.507Z,61.6681
2023-04-03T10:37:28.268Z,60.9999
2023-04-03T10:38:30.061Z,60.2156
2023-04-03T10:39:31.839Z,60.0378
2023-04-03T10:40:33.665Z,60.1877
2023-04-03T10:41:35.441Z,59.8817
2023-04-03T10:42:37.203Z,59.7559
2023-04-03T10:43:38.980Z,60.0937
2023-04-03T10:44:40.773Z,60.0745
2023-04-03T10:45:42.612Z,59.8240
2023-04-03T10:46:44.387Z,60.0259
2023-04-03T10:47:46.179Z,60.3932
2023-04-03T10:48:47.966Z,59.6249
2023-04-03T10:49:57.017Z,59.5998
2023-04-03T10:50:50.073Z,59.0533
2023-04-03T10:51:51.881Z,59.8274
2023-04-03T10:52:53.678Z,60.2961
2023-04-03T10:53:55.470Z,60.3886
2023-04-03T10:54:57.264Z,61.4776
2023-04-03T10:55:59.097Z,61.8555
2023-04-03T10:57:11.023Z,63.3194
2023-04-03T10:58:01.218Z,64.6650
2023-04-03T10:59:02.995Z,66.7792
2023-04-03T11:00:04.784Z,66.9742
2023-04-03T11:01:06.656Z,66.0592
2023-04-03T11:02:08.536Z,65.7715
2023-04-03T11:03:10.448Z,65.0390
2023-04-03T11:04:12.341Z,63.6879
2023-04-03T11:05:14.137Z,63.5294
2023-04-03T11:06:15.983Z,63.3552
2023-04-03T11:07:17.806Z,63.1284
2023-04-03T11:08:19.730Z,63.1091
2023-04-03T11:09:21.570Z,62.3763
2023-04-03T11:10:23.446Z,62.4803
2023-04-03T11:11:25.294Z,62.1304
2023-04-03T11:12:27.125Z,61.3468
2023-04-03T11:13:28.947Z,60.9777
2023-04-03T11:14:30.796Z,61.2701
2023-04-03T11:15:32.686Z,61.8779
2023-04-03T11:16:43.370Z,62.4695
2023-04-03T11:17:34.890Z,62.9075
2023-04-03T11:18:36.654Z,62.6258
2023-04-03T11:19:38.503Z,62.3869
2023-04-03T11:20:40.375Z,62.6081
2023-04-03T11:21:42.149Z,63.0016
2023-04-03T11:22:43.989Z,63.3658
2023-04-03T11:23:49.964Z,63.2284
2023-04-03T11:24:47.089Z,63.6048
2023-04-03T11:25:48.909Z,63.7509
2023-04-03T11:26:50.736Z,63.5555
2023-04-03T11:27:52.574Z,63.8622
2023-04-03T11:28:54.408Z,63.4911
2023-04-03T11:29:56.220Z,63.4996
2023-04-03T11:30:58.293Z,63.5547
2023-04-03T11:31:58.793Z,63.0818
2023-04-03T11:33:00.745Z,62.7970
2023-04-03T11:34:02.648Z,62.6854
2023-04-03T11:35:04.461Z,63.1258
2023-04-03T11:36:15.505Z,63.5632
2023-04-03T11:37:06.796Z,62.8147
2023-04-03T11:38:08.633Z,62.0932
2023-04-03T11:39:10.438Z,62.3189
2023-04-03T11:40:12.260Z,62.6514
2023-04-03T11:41:14.068Z,63.1323
2023-04-03T11:42:15.918Z,63.1185
2023-04-03T11:43:17.705Z,62.7079
2023-04-03T11:44:19.572Z,63.0212
2023-04-03T11:45:21.383Z,62.9906
2023-04-03T11:46:23.225Z,63.0369
2023-04-03T11:47:25.115Z,63.5033
2023-04-03T11:48:26.982Z,63.3454
2023-04-03T11:49:28.767Z,63.2914
2023-04-03T11:50:30.561Z,63.3749
2023-04-03T11:51:32.446Z,63.2253
2023-04-03T11:52:34.248Z,63.4782
2023-04-03T11:53:36.073Z,63.5652
2023-04-03T11:54:44.290Z,63.3415
2023-04-03T11:55:38.403Z,63.7179
2023-04-03T11:56:40.544Z,63.7253
2023-04-03T11:57:42.386Z,64.2168
2023-04-03T11:58:44.238Z,64.2818
2023-04-03T11:59:46.065Z,64.5736
2023-04-03T12:00:47.930Z,64.1877
2023-04-03T12:01:49.826Z,64.3465
2023-04-03T12:02:54.676Z,64.3370
2023-04-03T12:03:52.215Z,64.2166
2023-04-03T12:04:54.052Z,64.3497
2023-04-03T12:05:55.938Z,64.5516
2023-04-03T12:06:57.802Z,64.0515
2023-04-03T12:07:59.634Z,64.1148
2023-04-03T12:09:01.448Z,64.2941
2023-04-03T12:10:03.266Z,63.6712
2023-04-03T12:11:05.116Z,63.4511
2023-04-03T12:12:06.972Z,63.6949
2023-04-03T12:13:08.880Z,63.0795
2023-04-03T12:14:10.681Z,62.8075
2023-04-03T12:15:12.511Z,62.7613
2023-04-03T12:16:14.376Z,63.0290
2023-04-03T12:17:16.241Z,62.7636
2023-04-03T12:18:18.064Z,63.0128
2023-04-03T12:19:22.252Z,63.3714
2023-04-03T12:20:21.200Z,63.5905
2023-04-03T12:21:23.100Z,63.7552
2023-04-03T12:22:24.969Z,63.8865
2023-04-03T12:23:26.799Z,63.8298
2023-04-03T12:24:28.641Z,63.8757
2023-04-03T12:25:30.479Z,63.3581
2023-04-03T12:26:38.397Z,63.4386